Terminal Aerodrome Forecast
Issued by NWS

Home | Current Version | Previous Version | Text Only | Print | Product List | Glossary On
Versions: 1 2 3 4 5 6 7 8 9 10 11 12 13 14 15 16 17 18 19 20 21 22 23 24 25
000
FTUS41 KOKX 110546
TAFSWF
TAF
KSWF 110546Z 1106/1212 VRB03KT P6SM FEW050
     FM111100 VRB03KT P6SM BKN120
     FM111900 23006KT 6SM -SN SCT030 OVC050
     FM112100 19006KT 3SM -SN BR SCT015 OVC025
     FM120000 VRB03KT 2SM -SN BR SCT007 OVC015
     FM120600 VRB03KT 3/4SM -SN BR OVC007
     FM121100 VRB03KT 1SM -FZRASN BR OVC007=

USA.gov is the U.S. government's official web portal to all federal, state and local government web resources and services.